sensor_id;sensor_type;location;lat;lon;timestamp;temperature;humidity
8565;DHT22;4320;51.498;6.556;2023-04-24T00:00:04;12.20;99.90
8565;DHT22;4320;51.498;6.556;2023-04-24T00:02:37;12.20;99.90
8565;DHT22;4320;51.498;6.556;2023-04-24T00:05:05;12.30;99.90
8565;DHT22;4320;51.498;6.556;2023-04-24T00:07:31;12.20;99.90
8565;DHT22;4320;51.498;6.556;2023-04-24T00:09:56;12.20;99.90
8565;DHT22;4320;51.498;6.556;2023-04-24T00:12:22;12.20;99.90
8565;DHT22;4320;51.498;6.556;2023-04-24T00:14:48;12.20;99.90
8565;DHT22;4320;51.498;6.556;2023-04-24T00:17:14;12.20;99.90
8565;DHT22;4320;51.498;6.556;2023-04-24T00:19:39;12.20;99.90
8565;DHT22;4320;51.498;6.556;2023-04-24T00:22:05;12.10;99.90
8565;DHT22;4320;51.498;6.556;2023-04-24T00:24:31;12.10;99.90
8565;DHT22;4320;51.498;6.556;2023-04-24T00:26:57;12.10;99.90
8565;DHT22;4320;51.498;6.556;2023-04-24T00:29:22;12.10;99.90
8565;DHT22;4320;51.498;6.556;2023-04-24T00:31:48;12.10;99.90
8565;DHT22;4320;51.498;6.556;2023-04-24T00:34:14;12.10;99.90
8565;DHT22;4320;51.498;6.556;2023-04-24T00:36:39;12.10;99.90
8565;DHT22;4320;51.498;6.556;2023-04-24T00:39:05;12.10;99.90
8565;DHT22;4320;51.498;6.556;2023-04-24T00:41:34;12.10;99.90
8565;DHT22;4320;51.498;6.556;2023-04-24T00:44:00;12.10;99.90
8565;DHT22;4320;51.498;6.556;2023-04-24T00:46:26;12.00;99.90
8565;DHT22;4320;51.498;6.556;2023-04-24T00:48:51;12.00;99.90
8565;DHT22;4320;51.498;6.556;2023-04-24T00:51:17;11.90;99.90
8565;DHT22;4320;51.498;6.556;2023-04-24T00:53:43;11.90;99.90
8565;DHT22;4320;51.498;6.556;2023-04-24T00:56:09;11.90;99.90
8565;DHT22;4320;51.498;6.556;2023-04-24T00:58:35;11.80;99.90
8565;DHT22;4320;51.498;6.556;2023-04-24T01:01:01;11.80;99.90
8565;DHT22;4320;51.498;6.556;2023-04-24T01:03:29;11.80;99.90
8565;DHT22;4320;51.498;6.556;2023-04-24T01:05:56;11.70;99.90
8565;DHT22;4320;51.498;6.556;2023-04-24T01:08:24;11.80;99.90
8565;DHT22;4320;51.498;6.556;2023-04-24T01:10:52;11.70;99.90
8565;DHT22;4320;51.498;6.556;2023-04-24T01:13:18;11.80;99.90
8565;DHT22;4320;51.498;6.556;2023-04-24T01:15:45;11.70;99.90
8565;DHT22;4320;51.498;6.556;2023-04-24T01:18:11;11.70;99.90
8565;DHT22;4320;51.498;6.556;2023-04-24T01:20:39;11.70;99.90
8565;DHT22;4320;51.498;6.556;2023-04-24T01:23:06;11.60;99.90
8565;DHT22;4320;51.498;6.556;2023-04-24T01:25:32;11.60;99.90
8565;DHT22;4320;51.498;6.556;2023-04-24T01:27:58;11.60;99.90
8565;DHT22;4320;51.498;6.556;2023-04-24T01:30:25;11.60;99.90
8565;DHT22;4320;51.498;6.556;2023-04-24T01:32:51;11.60;99.90
8565;DHT22;4320;51.498;6.556;2023-04-24T01:35:17;11.50;99.90
8565;DHT22;4320;51.498;6.556;2023-04-24T01:37:43;11.50;99.90
8565;DHT22;4320;51.498;6.556;2023-04-24T01:40:09;11.60;99.90
8565;DHT22;4320;51.498;6.556;2023-04-24T01:42:35;11.60;99.90
8565;DHT22;4320;51.498;6.556;2023-04-24T01:45:02;11.50;99.90
8565;DHT22;4320;51.498;6.556;2023-04-24T01:47:30;11.50;99.90
8565;DHT22;4320;51.498;6.556;2023-04-24T01:49:55;11.50;99.90
8565;DHT22;4320;51.498;6.556;2023-04-24T01:52:21;11.50;99.90
8565;DHT22;4320;51.498;6.556;2023-04-24T01:54:47;11.50;99.90
8565;DHT22;4320;51.498;6.556;2023-04-24T01:57:14;11.50;99.90
8565;DHT22;4320;51.498;6.556;2023-04-24T01:59:40;11.50;99.90
8565;DHT22;4320;51.498;6.556;2023-04-24T02:02:05;11.50;99.90
8565;DHT22;4320;51.498;6.556;2023-04-24T02:04:31;11.40;99.90
8565;DHT22;4320;51.498;6.556;2023-04-24T02:06:57;11.40;99.90
8565;DHT22;4320;51.498;6.556;2023-04-24T02:09:23;11.40;99.90
8565;DHT22;4320;51.498;6.556;2023-04-24T02:11:48;11.50;99.90
8565;DHT22;4320;51.498;6.556;2023-04-24T02:14:14;11.50;99.90
8565;DHT22;4320;51.498;6.556;2023-04-24T02:16:40;11.40;99.90
8565;DHT22;4320;51.498;6.556;2023-04-24T02:19:05;11.40;99.90
8565;DHT22;4320;51.498;6.556;2023-04-24T02:21:34;11.40;99.90
8565;DHT22;4320;51.498;6.556;2023-04-24T02:24:07;11.40;99.90
8565;DHT22;4320;51.498;6.556;2023-04-24T02:26:39;11.40;99.90
8565;DHT22;4320;51.498;6.556;2023-04-24T02:29:07;11.40;99.90
8565;DHT22;4320;51.498;6.556;2023-04-24T02:31:32;11.40;99.90
8565;DHT22;4320;51.498;6.556;2023-04-24T02:33:59;11.40;99.90
8565;DHT22;4320;51.498;6.556;2023-04-24T02:36:25;11.40;99.90
8565;DHT22;4320;51.498;6.556;2023-04-24T02:38:50;11.30;99.90
8565;DHT22;4320;51.498;6.556;2023-04-24T02:41:16;11.30;99.90
8565;DHT22;4320;51.498;6.556;2023-04-24T02:43:42;11.30;99.90
8565;DHT22;4320;51.498;6.556;2023-04-24T02:46:07;11.40;99.90
8565;DHT22;4320;51.498;6.556;2023-04-24T02:48:33;11.30;99.90
8565;DHT22;4320;51.498;6.556;2023-04-24T02:50:58;11.30;99.90
8565;DHT22;4320;51.498;6.556;2023-04-24T02:53:24;11.30;99.90
8565;DHT22;4320;51.498;6.556;2023-04-24T02:55:50;11.30;99.90
8565;DHT22;4320;51.498;6.556;2023-04-24T02:58:16;11.30;99.90
8565;DHT22;4320;51.498;6.556;2023-04-24T03:00:42;11.30;99.90
8565;DHT22;4320;51.498;6.556;2023-04-24T03:03:09;11.30;99.90
8565;DHT22;4320;51.498;6.556;2023-04-24T03:05:35;11.30;99.90
8565;DHT22;4320;51.498;6.556;2023-04-24T03:08:00;11.40;99.90
8565;DHT22;4320;51.498;6.556;2023-04-24T03:10:26;11.40;99.90
8565;DHT22;4320;51.498;6.556;2023-04-24T03:12:52;11.30;99.90
8565;DHT22;4320;51.498;6.556;2023-04-24T03:15:17;11.30;99.90
8565;DHT22;4320;51.498;6.556;2023-04-24T03:17:43;11.30;99.90
8565;DHT22;4320;51.498;6.556;2023-04-24T03:20:09;11.30;99.90
8565;DHT22;4320;51.498;6.556;2023-04-24T03:22:35;11.30;99.90
8565;DHT22;4320;51.498;6.556;2023-04-24T03:25:01;11.40;99.90
8565;DHT22;4320;51.498;6.556;2023-04-24T03:27:26;11.30;99.90
8565;DHT22;4320;51.498;6.556;2023-04-24T03:29:52;11.40;99.90
8565;DHT22;4320;51.498;6.556;2023-04-24T03:32:21;11.30;99.90
8565;DHT22;4320;51.498;6.556;2023-04-24T03:34:51;11.30;99.90
8565;DHT22;4320;51.498;6.556;2023-04-24T03:37:16;11.30;99.90
8565;DHT22;4320;51.498;6.556;2023-04-24T03:39:42;11.30;99.90
8565;DHT22;4320;51.498;6.556;2023-04-24T03:42:08;11.30;99.90
8565;DHT22;4320;51.498;6.556;2023-04-24T03:44:35;11.30;99.90
8565;DHT22;4320;51.498;6.556;2023-04-24T03:47:00;11.30;99.90
8565;DHT22;4320;51.498;6.556;2023-04-24T03:49:26;11.30;99.90
8565;DHT22;4320;51.498;6.556;2023-04-24T03:51:51;11.30;99.90
8565;DHT22;4320;51.498;6.556;2023-04-24T03:54:18;11.30;99.90
8565;DHT22;4320;51.498;6.556;2023-04-24T03:56:44;11.30;99.90
8565;DHT22;4320;51.498;6.556;2023-04-24T03:59:10;11.40;99.90
8565;DHT22;4320;51.498;6.556;2023-04-24T04:01:35;11.30;99.90
8565;DHT22;4320;51.498;6.556;2023-04-24T04:04:05;11.30;99.90
8565;DHT22;4320;51.498;6.556;2023-04-24T04:06:31;11.30;99.90
8565;DHT22;4320;51.498;6.556;2023-04-24T04:08:57;11.30;99.90
8565;DHT22;4320;51.498;6.556;2023-04-24T04:11:23;11.30;99.90
8565;DHT22;4320;51.498;6.556;2023-04-24T04:13:49;11.30;99.90
8565;DHT22;4320;51.498;6.556;2023-04-24T04:16:15;11.20;99.90
8565;DHT22;4320;51.498;6.556;2023-04-24T04:18:45;11.20;99.90
8565;DHT22;4320;51.498;6.556;2023-04-24T04:21:11;11.20;99.90
8565;DHT22;4320;51.498;6.556;2023-04-24T04:23:37;11.20;99.90
8565;DHT22;4320;51.498;6.556;2023-04-24T04:26:03;11.20;99.90
8565;DHT22;4320;51.498;6.556;2023-04-24T04:28:29;11.30;99.90
8565;DHT22;4320;51.498;6.556;2023-04-24T04:30:58;11.30;99.90
8565;DHT22;4320;51.498;6.556;2023-04-24T04:33:24;11.20;99.90
8565;DHT22;4320;51.498;6.556;2023-04-24T04:35:50;11.20;99.90
8565;DHT22;4320;51.498;6.556;2023-04-24T04:38:18;11.20;99.90
8565;DHT22;4320;51.498;6.556;2023-04-24T04:40:44;11.20;99.90
8565;DHT22;4320;51.498;6.556;2023-04-24T04:43:10;11.10;99.90
8565;DHT22;4320;51.498;6.556;2023-04-24T04:45:37;11.10;99.90
8565;DHT22;4320;51.498;6.556;2023-04-24T04:48:04;11.10;99.90
8565;DHT22;4320;51.498;6.556;2023-04-24T04:50:33;11.10;99.90
8565;DHT22;4320;51.498;6.556;2023-04-24T04:52:58;11.10;99.90
8565;DHT22;4320;51.498;6.556;2023-04-24T04:55:24;11.10;99.90
8565;DHT22;4320;51.498;6.556;2023-04-24T04:57:50;11.00;99.90
8565;DHT22;4320;51.498;6.556;2023-04-24T05:00:16;11.00;99.90
8565;DHT22;4320;51.498;6.556;2023-04-24T05:02:42;11.00;99.90
8565;DHT22;4320;51.498;6.556;2023-04-24T05:05:08;11.00;99.90
8565;DHT22;4320;51.498;6.556;2023-04-24T05:07:34;11.00;99.90
8565;DHT22;4320;51.498;6.556;2023-04-24T05:09:59;11.00;99.90
8565;DHT22;4320;51.498;6.556;2023-04-24T05:12:25;11.10;99.90
8565;DHT22;4320;51.498;6.556;2023-04-24T05:14:51;11.10;99.90
8565;DHT22;4320;51.498;6.556;2023-04-24T05:17:17;11.00;99.90
8565;DHT22;4320;51.498;6.556;2023-04-24T05:19:42;11.10;99.90
8565;DHT22;4320;51.498;6.556;2023-04-24T05:22:08;11.10;99.90
8565;DHT22;4320;51.498;6.556;2023-04-24T05:24:35;11.00;99.90
8565;DHT22;4320;51.498;6.556;2023-04-24T05:27:01;11.00;99.90
8565;DHT22;4320;51.498;6.556;2023-04-24T05:29:28;10.90;99.90
8565;DHT22;4320;51.498;6.556;2023-04-24T05:31:56;10.90;99.90
8565;DHT22;4320;51.498;6.556;2023-04-24T05:34:21;10.90;99.90
8565;DHT22;4320;51.498;6.556;2023-04-24T05:36:47;10.90;99.90
8565;DHT22;4320;51.498;6.556;2023-04-24T05:39:13;10.90;99.90
8565;DHT22;4320;51.498;6.556;2023-04-24T05:41:40;11.00;99.90
8565;DHT22;4320;51.498;6.556;2023-04-24T05:44:06;10.90;99.90
8565;DHT22;4320;51.498;6.556;2023-04-24T05:46:31;10.90;99.90
8565;DHT22;4320;51.498;6.556;2023-04-24T05:48:57;10.80;99.90
8565;DHT22;4320;51.498;6.556;2023-04-24T05:51:23;10.60;99.90
8565;DHT22;4320;51.498;6.556;2023-04-24T05:53:49;10.60;99.90
8565;DHT22;4320;51.498;6.556;2023-04-24T05:56:15;10.60;99.90
8565;DHT22;4320;51.498;6.556;2023-04-24T05:58:41;10.50;99.90
8565;DHT22;4320;51.498;6.556;2023-04-24T06:01:06;10.60;99.90
8565;DHT22;4320;51.498;6.556;2023-04-24T06:03:32;10.60;99.90
8565;DHT22;4320;51.498;6.556;2023-04-24T06:05:58;10.60;99.90
8565;DHT22;4320;51.498;6.556;2023-04-24T06:08:24;10.60;99.90
8565;DHT22;4320;51.498;6.556;2023-04-24T06:10:49;10.60;99.90
8565;DHT22;4320;51.498;6.556;2023-04-24T06:13:15;10.60;99.90
8565;DHT22;4320;51.498;6.556;2023-04-24T06:15:41;10.60;99.90
8565;DHT22;4320;51.498;6.556;2023-04-24T06:18:07;10.50;99.90
8565;DHT22;4320;51.498;6.556;2023-04-24T06:20:35;10.50;99.90
8565;DHT22;4320;51.498;6.556;2023-04-24T06:23:01;10.50;99.90
8565;DHT22;4320;51.498;6.556;2023-04-24T06:25:27;10.50;99.90
8565;DHT22;4320;51.498;6.556;2023-04-24T06:27:54;10.50;99.90
8565;DHT22;4320;51.498;6.556;2023-04-24T06:30:20;10.40;99.90
8565;DHT22;4320;51.498;6.556;2023-04-24T06:32:45;10.50;99.90
8565;DHT22;4320;51.498;6.556;2023-04-24T06:35:11;10.50;99.90
8565;DHT22;4320;51.498;6.556;2023-04-24T06:37:39;10.50;99.90
8565;DHT22;4320;51.498;6.556;2023-04-24T06:40:05;10.50;99.90
8565;DHT22;4320;51.498;6.556;2023-04-24T06:42:31;10.50;99.90
8565;DHT22;4320;51.498;6.556;2023-04-24T06:44:57;10.50;99.90
8565;DHT22;4320;51.498;6.556;2023-04-24T06:47:22;10.50;99.90
8565;DHT22;4320;51.498;6.556;2023-04-24T06:49:48;10.50;99.90
8565;DHT22;4320;51.498;6.556;2023-04-24T06:52:16;10.40;99.90
8565;DHT22;4320;51.498;6.556;2023-04-24T06:54:42;10.40;99.90
8565;DHT22;4320;51.498;6.556;2023-04-24T06:57:08;10.40;99.90
8565;DHT22;4320;51.498;6.556;2023-04-24T06:59:33;10.40;99.90
8565;DHT22;4320;51.498;6.556;2023-04-24T07:01:59;10.40;99.90
8565;DHT22;4320;51.498;6.556;2023-04-24T07:04:25;10.40;99.90
8565;DHT22;4320;51.498;6.556;2023-04-24T07:06:51;10.40;99.90
8565;DHT22;4320;51.498;6.556;2023-04-24T07:09:19;10.40;99.90
8565;DHT22;4320;51.498;6.556;2023-04-24T07:11:45;10.50;99.90
8565;DHT22;4320;51.498;6.556;2023-04-24T07:14:11;10.40;99.90
8565;DHT22;4320;51.498;6.556;2023-04-24T07:16:37;10.40;99.90
8565;DHT22;4320;51.498;6.556;2023-04-24T07:19:03;10.40;99.90
8565;DHT22;4320;51.498;6.556;2023-04-24T07:21:28;10.50;99.90
8565;DHT22;4320;51.498;6.556;2023-04-24T07:23:56;10.50;99.90
8565;DHT22;4320;51.498;6.556;2023-04-24T07:26:22;10.40;99.90
8565;DHT22;4320;51.498;6.556;2023-04-24T07:28:47;10.50;99.90
8565;DHT22;4320;51.498;6.556;2023-04-24T07:31:13;10.40;99.90
8565;DHT22;4320;51.498;6.556;2023-04-24T07:33:38;10.40;99.90
8565;DHT22;4320;51.498;6.556;2023-04-24T07:36:04;10.40;99.90
8565;DHT22;4320;51.498;6.556;2023-04-24T07:38:30;10.30;99.90
8565;DHT22;4320;51.498;6.556;2023-04-24T07:40:56;10.20;99.90
8565;DHT22;4320;51.498;6.556;2023-04-24T07:43:22;10.20;99.90
8565;DHT22;4320;51.498;6.556;2023-04-24T07:45:52;10.20;99.90
8565;DHT22;4320;51.498;6.556;2023-04-24T07:48:18;10.20;99.90
8565;DHT22;4320;51.498;6.556;2023-04-24T07:50:44;10.30;99.90
8565;DHT22;4320;51.498;6.556;2023-04-24T07:53:10;10.40;99.90
8565;DHT22;4320;51.498;6.556;2023-04-24T07:55:36;10.30;99.90
8565;DHT22;4320;51.498;6.556;2023-04-24T07:58:01;10.30;99.90
8565;DHT22;4320;51.498;6.556;2023-04-24T08:00:27;10.20;99.90
8565;DHT22;4320;51.498;6.556;2023-04-24T08:02:53;10.20;99.90
8565;DHT22;4320;51.498;6.556;2023-04-24T08:05:18;10.10;99.90
8565;DHT22;4320;51.498;6.556;2023-04-24T08:07:45;10.00;99.90
8565;DHT22;4320;51.498;6.556;2023-04-24T08:10:14;10.00;1.00
8565;DHT22;4320;51.498;6.556;2023-04-24T08:12:40;10.00;1.00
8565;DHT22;4320;51.498;6.556;2023-04-24T08:15:06;10.10;1.00
8565;DHT22;4320;51.498;6.556;2023-04-24T08:17:33;10.10;1.00
8565;DHT22;4320;51.498;6.556;2023-04-24T08:19:59;10.20;1.00
8565;DHT22;4320;51.498;6.556;2023-04-24T08:22:27;10.00;1.00
8565;DHT22;4320;51.498;6.556;2023-04-24T08:24:54;10.20;1.00
8565;DHT22;4320;51.498;6.556;2023-04-24T08:27:19;10.00;1.00
8565;DHT22;4320;51.498;6.556;2023-04-24T08:29:45;10.10;1.00
8565;DHT22;4320;51.498;6.556;2023-04-24T08:32:11;9.90;1.00
8565;DHT22;4320;51.498;6.556;2023-04-24T08:34:36;10.20;1.00
8565;DHT22;4320;51.498;6.556;2023-04-24T08:37:02;10.20;1.00
8565;DHT22;4320;51.498;6.556;2023-04-24T08:39:28;10.20;1.00
8565;DHT22;4320;51.498;6.556;2023-04-24T08:41:55;10.40;1.00
8565;DHT22;4320;51.498;6.556;2023-04-24T08:44:21;10.30;1.00
8565;DHT22;4320;51.498;6.556;2023-04-24T08:46:48;10.20;1.00
8565;DHT22;4320;51.498;6.556;2023-04-24T08:49:15;10.20;1.00
8565;DHT22;4320;51.498;6.556;2023-04-24T08:51:44;10.10;1.00
8565;DHT22;4320;51.498;6.556;2023-04-24T08:54:11;10.00;1.00
8565;DHT22;4320;51.498;6.556;2023-04-24T08:56:37;10.00;1.00
8565;DHT22;4320;51.498;6.556;2023-04-24T08:59:06;10.00;1.00
8565;DHT22;4320;51.498;6.556;2023-04-24T09:01:32;10.00;1.00
8565;DHT22;4320;51.498;6.556;2023-04-24T09:04:04;10.10;1.00
8565;DHT22;4320;51.498;6.556;2023-04-24T09:06:30;10.10;1.00
8565;DHT22;4320;51.498;6.556;2023-04-24T09:09:00;10.10;1.00
8565;DHT22;4320;51.498;6.556;2023-04-24T09:11:26;10.10;1.00
8565;DHT22;4320;51.498;6.556;2023-04-24T09:13:53;10.10;1.00
8565;DHT22;4320;51.498;6.556;2023-04-24T09:16:19;10.10;1.00
8565;DHT22;4320;51.498;6.556;2023-04-24T09:18:45;10.10;1.00
8565;DHT22;4320;51.498;6.556;2023-04-24T09:21:11;10.10;1.00
8565;DHT22;4320;51.498;6.556;2023-04-24T09:23:37;10.10;1.00
8565;DHT22;4320;51.498;6.556;2023-04-24T09:26:04;10.20;1.00
8565;DHT22;4320;51.498;6.556;2023-04-24T09:28:36;10.10;1.00
8565;DHT22;4320;51.498;6.556;2023-04-24T09:31:22;10.10;1.00
8565;DHT22;4320;51.498;6.556;2023-04-24T09:33:54;10.10;1.00
8565;DHT22;4320;51.498;6.556;2023-04-24T09:36:30;10.10;1.00
8565;DHT22;4320;51.498;6.556;2023-04-24T09:39:01;10.20;1.00
8565;DHT22;4320;51.498;6.556;2023-04-24T09:41:27;10.10;1.00
8565;DHT22;4320;51.498;6.556;2023-04-24T09:43:54;10.20;1.00
8565;DHT22;4320;51.498;6.556;2023-04-24T09:46:21;10.00;1.00
8565;DHT22;4320;51.498;6.556;2023-04-24T09:48:47;10.10;1.00
8565;DHT22;4320;51.498;6.556;2023-04-24T09:51:13;10.00;1.00
8565;DHT22;4320;51.498;6.556;2023-04-24T09:53:45;10.00;1.00
8565;DHT22;4320;51.498;6.556;2023-04-24T09:56:11;9.90;1.00
8565;DHT22;4320;51.498;6.556;2023-04-24T09:58:40;10.10;1.00
8565;DHT22;4320;51.498;6.556;2023-04-24T10:01:07;10.00;1.00
8565;DHT22;4320;51.498;6.556;2023-04-24T10:03:34;10.20;1.00
8565;DHT22;4320;51.498;6.556;2023-04-24T10:06:01;10.20;1.00
8565;DHT22;4320;51.498;6.556;2023-04-24T10:08:27;10.30;1.00
8565;DHT22;4320;51.498;6.556;2023-04-24T10:10:58;10.20;1.00
8565;DHT22;4320;51.498;6.556;2023-04-24T10:13:25;10.40;1.00
8565;DHT22;4320;51.498;6.556;2023-04-24T10:15:51;10.40;1.00
8565;DHT22;4320;51.498;6.556;2023-04-24T10:18:17;10.40;1.00
8565;DHT22;4320;51.498;6.556;2023-04-24T10:20:43;10.20;1.00
8565;DHT22;4320;51.498;6.556;2023-04-24T10:23:10;10.30;99.90
8565;DHT22;4320;51.498;6.556;2023-04-24T10:25:37;10.30;99.90
8565;DHT22;4320;51.498;6.556;2023-04-24T10:28:03;10.20;99.90
8565;DHT22;4320;51.498;6.556;2023-04-24T10:30:31;10.30;1.00
8565;DHT22;4320;51.498;6.556;2023-04-24T10:33:01;10.20;1.00
8565;DHT22;4320;51.498;6.556;2023-04-24T10:35:26;10.10;99.90
8565;DHT22;4320;51.498;6.556;2023-04-24T10:38:03;10.30;99.90
8565;DHT22;4320;51.498;6.556;2023-04-24T10:40:35;10.50;99.90
8565;DHT22;4320;51.498;6.556;2023-04-24T10:43:05;10.60;99.90
8565;DHT22;4320;51.498;6.556;2023-04-24T10:45:33;10.70;99.90
8565;DHT22;4320;51.498;6.556;2023-04-24T10:50:30;11.10;99.90
8565;DHT22;4320;51.498;6.556;2023-04-24T10:53:11;11.20;99.90
8565;DHT22;4320;51.498;6.556;2023-04-24T10:55:47;11.50;99.90
8565;DHT22;4320;51.498;6.556;2023-04-24T10:58:13;11.50;99.90
8565;DHT22;4320;51.498;6.556;2023-04-24T11:00:41;11.20;99.90
8565;DHT22;4320;51.498;6.556;2023-04-24T11:06:06;10.90;99.90
8565;DHT22;4320;51.498;6.556;2023-04-24T11:08:57;10.70;99.90
8565;DHT22;4320;51.498;6.556;2023-04-24T11:11:18;10.70;99.90
8565;DHT22;4320;51.498;6.556;2023-04-24T11:16:28;10.60;99.90
8565;DHT22;4320;51.498;6.556;2023-04-24T11:21:44;10.40;99.90
8565;DHT22;4320;51.498;6.556;2023-04-24T11:24:24;10.40;99.90
8565;DHT22;4320;51.498;6.556;2023-04-24T11:29:48;10.80;99.90
8565;DHT22;4320;51.498;6.556;2023-04-24T11:32:26;10.90;99.90
8565;DHT22;4320;51.498;6.556;2023-04-24T11:37:22;11.50;99.90
8565;DHT22;4320;51.498;6.556;2023-04-24T11:39:53;11.80;99.90
8565;DHT22;4320;51.498;6.556;2023-04-24T11:42:21;11.90;99.90
8565;DHT22;4320;51.498;6.556;2023-04-24T11:44:47;12.00;99.90
8565;DHT22;4320;51.498;6.556;2023-04-24T11:47:14;11.80;99.90
8565;DHT22;4320;51.498;6.556;2023-04-24T11:49:40;11.90;99.90
8565;DHT22;4320;51.498;6.556;2023-04-24T11:52:06;11.80;99.90
8565;DHT22;4320;51.498;6.556;2023-04-24T11:54:32;11.80;99.90
8565;DHT22;4320;51.498;6.556;2023-04-24T11:56:57;11.70;99.90
8565;DHT22;4320;51.498;6.556;2023-04-24T11:59:23;11.50;99.90
8565;DHT22;4320;51.498;6.556;2023-04-24T12:01:49;11.40;99.90
8565;DHT22;4320;51.498;6.556;2023-04-24T12:04:17;11.30;99.90
8565;DHT22;4320;51.498;6.556;2023-04-24T12:07:02;11.00;99.90
8565;DHT22;4320;51.498;6.556;2023-04-24T12:09:28;11.10;99.90
8565;DHT22;4320;51.498;6.556;2023-04-24T12:11:56;11.10;99.90
8565;DHT22;4320;51.498;6.556;2023-04-24T12:14:23;11.30;99.90
8565;DHT22;4320;51.498;6.556;2023-04-24T12:16:50;11.30;99.90
8565;DHT22;4320;51.498;6.556;2023-04-24T12:19:21;11.50;99.90
8565;DHT22;4320;51.498;6.556;2023-04-24T12:21:59;11.50;99.90
8565;DHT22;4320;51.498;6.556;2023-04-24T12:24:25;11.60;99.90
8565;DHT22;4320;51.498;6.556;2023-04-24T12:26:50;11.50;99.90
8565;DHT22;4320;51.498;6.556;2023-04-24T12:29:20;11.70;99.90
8565;DHT22;4320;51.498;6.556;2023-04-24T12:31:46;11.50;99.90
8565;DHT22;4320;51.498;6.556;2023-04-24T12:34:22;11.60;99.90
8565;DHT22;4320;51.498;6.556;2023-04-24T12:36:48;11.90;99.90
8565;DHT22;4320;51.498;6.556;2023-04-24T12:39:18;11.90;99.90
8565;DHT22;4320;51.498;6.556;2023-04-24T12:41:57;12.10;99.90
8565;DHT22;4320;51.498;6.556;2023-04-24T12:44:33;12.20;99.90
8565;DHT22;4320;51.498;6.556;2023-04-24T12:47:00;12.10;99.90
8565;DHT22;4320;51.498;6.556;2023-04-24T12:49:26;12.20;99.90
8565;DHT22;4320;51.498;6.556;2023-04-24T12:51:52;12.30;99.90
8565;DHT22;4320;51.498;6.556;2023-04-24T12:54:18;12.30;99.90
8565;DHT22;4320;51.498;6.556;2023-04-24T12:56:44;12.30;99.90
8565;DHT22;4320;51.498;6.556;2023-04-24T12:59:09;12.20;99.90
8565;DHT22;4320;51.498;6.556;2023-04-24T13:01:35;12.10;99.90
8565;DHT22;4320;51.498;6.556;2023-04-24T13:04:01;12.20;99.90
8565;DHT22;4320;51.498;6.556;2023-04-24T13:06:26;11.80;99.90
8565;DHT22;4320;51.498;6.556;2023-04-24T13:08:52;11.80;99.90
8565;DHT22;4320;51.498;6.556;2023-04-24T13:11:20;11.80;99.90
8565;DHT22;4320;51.498;6.556;2023-04-24T13:13:47;11.70;99.90
8565;DHT22;4320;51.498;6.556;2023-04-24T13:16:13;11.60;99.90
8565;DHT22;4320;51.498;6.556;2023-04-24T13:18:38;11.60;99.90
8565;DHT22;4320;51.498;6.556;2023-04-24T13:21:04;11.40;99.90
8565;DHT22;4320;51.498;6.556;2023-04-24T13:23:30;11.70;99.90
8565;DHT22;4320;51.498;6.556;2023-04-24T13:25:55;11.70;99.90
8565;DHT22;4320;51.498;6.556;2023-04-24T13:28:24;11.70;99.90
8565;DHT22;4320;51.498;6.556;2023-04-24T13:30:50;11.80;99.90
8565;DHT22;4320;51.498;6.556;2023-04-24T13:33:16;11.90;99.90
8565;DHT22;4320;51.498;6.556;2023-04-24T13:35:42;11.90;99.90
8565;DHT22;4320;51.498;6.556;2023-04-24T13:38:07;12.10;99.90
8565;DHT22;4320;51.498;6.556;2023-04-24T13:40:33;12.40;99.90
8565;DHT22;4320;51.498;6.556;2023-04-24T13:42:59;12.40;99.90
8565;DHT22;4320;51.498;6.556;2023-04-24T13:45:25;12.60;99.90
8565;DHT22;4320;51.498;6.556;2023-04-24T13:47:51;12.60;99.90
8565;DHT22;4320;51.498;6.556;2023-04-24T13:50:17;12.60;99.90
8565;DHT22;4320;51.498;6.556;2023-04-24T13:52:42;12.20;99.90
8565;DHT22;4320;51.498;6.556;2023-04-24T13:55:08;12.00;99.50
8565;DHT22;4320;51.498;6.556;2023-04-24T13:57:33;12.10;99.90
8565;DHT22;4320;51.498;6.556;2023-04-24T13:59:59;12.20;99.90
8565;DHT22;4320;51.498;6.556;2023-04-24T14:02:27;12.20;99.80
8565;DHT22;4320;51.498;6.556;2023-04-24T14:04:53;11.80;97.60
8565;DHT22;4320;51.498;6.556;2023-04-24T14:07:18;11.90;99.90
8565;DHT22;4320;51.498;6.556;2023-04-24T14:09:44;11.90;99.20
8565;DHT22;4320;51.498;6.556;2023-04-24T14:12:09;11.90;97.50
8565;DHT22;4320;51.498;6.556;2023-04-24T14:14:35;11.80;95.90
8565;DHT22;4320;51.498;6.556;2023-04-24T14:17:01;11.70;95.70
8565;DHT22;4320;51.498;6.556;2023-04-24T14:19:26;11.60;98.50
8565;DHT22;4320;51.498;6.556;2023-04-24T14:21:52;11.60;99.90
8565;DHT22;4320;51.498;6.556;2023-04-24T14:24:18;11.40;99.90
8565;DHT22;4320;51.498;6.556;2023-04-24T14:26:43;11.40;99.90
8565;DHT22;4320;51.498;6.556;2023-04-24T14:29:09;11.40;99.90
8565;DHT22;4320;51.498;6.556;2023-04-24T14:31:35;11.40;99.90
8565;DHT22;4320;51.498;6.556;2023-04-24T14:34:00;11.30;99.90
8565;DHT22;4320;51.498;6.556;2023-04-24T14:36:26;11.30;99.90
8565;DHT22;4320;51.498;6.556;2023-04-24T14:38:51;11.20;99.90
8565;DHT22;4320;51.498;6.556;2023-04-24T14:41:17;11.10;99.90
8565;DHT22;4320;51.498;6.556;2023-04-24T14:43:43;11.30;99.90
8565;DHT22;4320;51.498;6.556;2023-04-24T14:46:08;11.30;99.90
8565;DHT22;4320;51.498;6.556;2023-04-24T14:48:34;11.30;99.90
8565;DHT22;4320;51.498;6.556;2023-04-24T14:51:00;11.40;99.90
8565;DHT22;4320;51.498;6.556;2023-04-24T14:53:25;11.50;99.90
8565;DHT22;4320;51.498;6.556;2023-04-24T14:55:51;11.50;99.90
8565;DHT22;4320;51.498;6.556;2023-04-24T14:58:17;11.90;99.90
8565;DHT22;4320;51.498;6.556;2023-04-24T15:00:42;12.00;99.90
8565;DHT22;4320;51.498;6.556;2023-04-24T15:03:08;11.90;99.90
8565;DHT22;4320;51.498;6.556;2023-04-24T15:05:33;11.90;99.90
8565;DHT22;4320;51.498;6.556;2023-04-24T15:07:59;12.10;99.90
8565;DHT22;4320;51.498;6.556;2023-04-24T15:10:25;12.20;99.90
8565;DHT22;4320;51.498;6.556;2023-04-24T15:12:51;12.10;99.90
8565;DHT22;4320;51.498;6.556;2023-04-24T15:15:17;12.20;99.90
8565;DHT22;4320;51.498;6.556;2023-04-24T15:17:42;12.20;99.90
8565;DHT22;4320;51.498;6.556;2023-04-24T15:20:08;12.00;99.90
8565;DHT22;4320;51.498;6.556;2023-04-24T15:22:34;11.90;99.90
8565;DHT22;4320;51.498;6.556;2023-04-24T15:25:00;11.90;99.90
8565;DHT22;4320;51.498;6.556;2023-04-24T15:27:26;12.00;99.90
8565;DHT22;4320;51.498;6.556;2023-04-24T15:29:52;11.90;99.90
8565;DHT22;4320;51.498;6.556;2023-04-24T15:32:19;11.90;99.90
8565;DHT22;4320;51.498;6.556;2023-04-24T15:34:44;11.90;99.90
8565;DHT22;4320;51.498;6.556;2023-04-24T15:37:10;12.00;99.90
8565;DHT22;4320;51.498;6.556;2023-04-24T15:39:36;12.20;99.90
8565;DHT22;4320;51.498;6.556;2023-04-24T15:42:02;12.20;99.40
8565;DHT22;4320;51.498;6.556;2023-04-24T15:44:28;12.10;96.60
8565;DHT22;4320;51.498;6.556;2023-04-24T15:46:54;12.20;94.80
8565;DHT22;4320;51.498;6.556;2023-04-24T15:49:20;12.20;95.40
8565;DHT22;4320;51.498;6.556;2023-04-24T15:51:46;12.10;93.40
8565;DHT22;4320;51.498;6.556;2023-04-24T15:54:12;12.00;92.30
8565;DHT22;4320;51.498;6.556;2023-04-24T15:56:37;11.90;90.90
8565;DHT22;4320;51.498;6.556;2023-04-24T15:59:03;11.90;91.60
8565;DHT22;4320;51.498;6.556;2023-04-24T16:01:29;11.90;89.10
8565;DHT22;4320;51.498;6.556;2023-04-24T16:03:55;12.00;88.90
8565;DHT22;4320;51.498;6.556;2023-04-24T16:06:21;11.90;87.90
8565;DHT22;4320;51.498;6.556;2023-04-24T16:08:47;11.80;81.70
8565;DHT22;4320;51.498;6.556;2023-04-24T16:11:12;11.70;81.80
8565;DHT22;4320;51.498;6.556;2023-04-24T16:13:38;11.80;82.10
8565;DHT22;4320;51.498;6.556;2023-04-24T16:16:04;11.80;79.20